Terminal Aerodrome Forecast
Issued by NWS

Home | Current Version | Previous Version | Graphics & Text | Print | Product List | Glossary On
Versions: 1 2 3 4 5 6 7 8 9 10 11 12 13 14 15 16
536
FTUS43 KGRB 240520
TAFCWA
TAF
KCWA 240520Z 2406/2506 29006KT P6SM SCT035 BKN060
     FM241000 29008KT P6SM SCT015 BKN040
      TEMPO 2410/2414 BKN015
     FM241600 29012G18KT P6SM SCT015 BKN035 PROB30 2418/2424 4SM
      -SHRA BKN025
     FM250000 29006KT P6SM SCT035 BKN060=

USA.gov is the U.S. government's official web portal to all federal, state and local government web resources and services.